sensor_id;sensor_type;location;lat;lon;timestamp;P1;durP1;ratioP1;P2;durP2;ratioP2
12088;SDS011;6107;49.078;8.578;2023-07-13T00:01:58;3.30;;;1.63;;
12088;SDS011;6107;49.078;8.578;2023-07-13T00:04:24;3.00;;;1.80;;
12088;SDS011;6107;49.078;8.578;2023-07-13T00:06:50;3.35;;;1.80;;
12088;SDS011;6107;49.078;8.578;2023-07-13T00:09:17;4.50;;;1.90;;
12088;SDS011;6107;49.078;8.578;2023-07-13T00:11:44;4.10;;;1.88;;
12088;SDS011;6107;49.078;8.578;2023-07-13T00:14:12;3.05;;;1.90;;
12088;SDS011;6107;49.078;8.578;2023-07-13T00:16:40;4.95;;;1.80;;
12088;SDS011;6107;49.078;8.578;2023-07-13T00:19:08;4.53;;;1.70;;
12088;SDS011;6107;49.078;8.578;2023-07-13T00:21:34;3.17;;;1.80;;
12088;SDS011;6107;49.078;8.578;2023-07-13T00:24:00;4.00;;;1.77;;
12088;SDS011;6107;49.078;8.578;2023-07-13T00:26:26;1.98;;;1.70;;
12088;SDS011;6107;49.078;8.578;2023-07-13T00:28:52;2.60;;;1.80;;
12088;SDS011;6107;49.078;8.578;2023-07-13T00:31:17;1.80;;;1.60;;
12088;SDS011;6107;49.078;8.578;2023-07-13T00:33:43;2.63;;;1.80;;
12088;SDS011;6107;49.078;8.578;2023-07-13T00:36:09;6.55;;;1.80;;
12088;SDS011;6107;49.078;8.578;2023-07-13T00:38:36;3.95;;;1.90;;
12088;SDS011;6107;49.078;8.578;2023-07-13T00:41:02;2.78;;;1.70;;
12088;SDS011;6107;49.078;8.578;2023-07-13T00:43:29;2.22;;;1.63;;
12088;SDS011;6107;49.078;8.578;2023-07-13T00:48:25;3.63;;;1.67;;
12088;SDS011;6107;49.078;8.578;2023-07-13T00:50:55;3.83;;;1.80;;
12088;SDS011;6107;49.078;8.578;2023-07-13T00:53:23;2.47;;;1.63;;
12088;SDS011;6107;49.078;8.578;2023-07-13T00:55:51;3.08;;;2.10;;
12088;SDS011;6107;49.078;8.578;2023-07-13T00:58:18;2.20;;;1.70;;
12088;SDS011;6107;49.078;8.578;2023-07-13T01:00:44;3.35;;;1.90;;
12088;SDS011;6107;49.078;8.578;2023-07-13T01:03:11;2.28;;;1.63;;
12088;SDS011;6107;49.078;8.578;2023-07-13T01:05:37;4.93;;;2.20;;
12088;SDS011;6107;49.078;8.578;2023-07-13T01:08:04;3.28;;;1.80;;
12088;SDS011;6107;49.078;8.578;2023-07-13T01:10:30;3.47;;;1.80;;
12088;SDS011;6107;49.078;8.578;2023-07-13T01:13:03;3.45;;;1.67;;
12088;SDS011;6107;49.078;8.578;2023-07-13T01:15:43;3.85;;;1.70;;
12088;SDS011;6107;49.078;8.578;2023-07-13T01:18:15;3.15;;;1.83;;
12088;SDS011;6107;49.078;8.578;2023-07-13T01:23:25;3.08;;;2.05;;
12088;SDS011;6107;49.078;8.578;2023-07-13T01:25:52;2.00;;;1.80;;
12088;SDS011;6107;49.078;8.578;2023-07-13T01:28:18;2.92;;;1.70;;
12088;SDS011;6107;49.078;8.578;2023-07-13T01:30:44;4.05;;;2.00;;
12088;SDS011;6107;49.078;8.578;2023-07-13T01:33:11;5.00;;;1.95;;
12088;SDS011;6107;49.078;8.578;2023-07-13T01:35:41;2.00;;;1.77;;
12088;SDS011;6107;49.078;8.578;2023-07-13T01:38:07;4.25;;;1.80;;
12088;SDS011;6107;49.078;8.578;2023-07-13T01:40:34;5.67;;;1.93;;
12088;SDS011;6107;49.078;8.578;2023-07-13T01:43:01;2.60;;;1.80;;
12088;SDS011;6107;49.078;8.578;2023-07-13T01:45:28;4.50;;;2.10;;
12088;SDS011;6107;49.078;8.578;2023-07-13T01:47:53;4.53;;;1.90;;
12088;SDS011;6107;49.078;8.578;2023-07-13T01:50:19;6.20;;;1.83;;
12088;SDS011;6107;49.078;8.578;2023-07-13T01:52:44;3.03;;;1.80;;
12088;SDS011;6107;49.078;8.578;2023-07-13T01:55:10;4.20;;;2.00;;
12088;SDS011;6107;49.078;8.578;2023-07-13T01:57:36;3.78;;;1.90;;
12088;SDS011;6107;49.078;8.578;2023-07-13T02:00:04;2.90;;;2.00;;
12088;SDS011;6107;49.078;8.578;2023-07-13T02:02:31;3.30;;;2.10;;
12088;SDS011;6107;49.078;8.578;2023-07-13T02:04:57;3.50;;;2.00;;
12088;SDS011;6107;49.078;8.578;2023-07-13T02:07:22;2.43;;;1.80;;
12088;SDS011;6107;49.078;8.578;2023-07-13T02:09:48;5.33;;;2.50;;
12088;SDS011;6107;49.078;8.578;2023-07-13T02:12:13;4.47;;;2.17;;
12088;SDS011;6107;49.078;8.578;2023-07-13T02:14:39;4.90;;;2.40;;
12088;SDS011;6107;49.078;8.578;2023-07-13T02:17:05;2.57;;;1.90;;
12088;SDS011;6107;49.078;8.578;2023-07-13T02:19:31;5.13;;;2.13;;
12088;SDS011;6107;49.078;8.578;2023-07-13T02:21:57;4.97;;;2.07;;
12088;SDS011;6107;49.078;8.578;2023-07-13T02:24:22;2.30;;;1.80;;
12088;SDS011;6107;49.078;8.578;2023-07-13T02:26:48;3.47;;;2.03;;
12088;SDS011;6107;49.078;8.578;2023-07-13T02:29:14;4.73;;;2.00;;
12088;SDS011;6107;49.078;8.578;2023-07-13T02:31:39;4.47;;;2.10;;
12088;SDS011;6107;49.078;8.578;2023-07-13T02:34:05;3.00;;;2.20;;
12088;SDS011;6107;49.078;8.578;2023-07-13T02:36:31;5.40;;;1.93;;
12088;SDS011;6107;49.078;8.578;2023-07-13T02:39:00;2.70;;;1.90;;
12088;SDS011;6107;49.078;8.578;2023-07-13T02:41:28;2.57;;;1.97;;
12088;SDS011;6107;49.078;8.578;2023-07-13T02:43:53;2.93;;;1.87;;
12088;SDS011;6107;49.078;8.578;2023-07-13T02:46:21;3.60;;;1.90;;
12088;SDS011;6107;49.078;8.578;2023-07-13T02:48:49;3.83;;;2.10;;
12088;SDS011;6107;49.078;8.578;2023-07-13T02:51:14;3.93;;;2.23;;
12088;SDS011;6107;49.078;8.578;2023-07-13T02:53:40;5.50;;;2.13;;
12088;SDS011;6107;49.078;8.578;2023-07-13T02:56:05;4.13;;;2.13;;
12088;SDS011;6107;49.078;8.578;2023-07-13T02:58:32;3.83;;;2.00;;
12088;SDS011;6107;49.078;8.578;2023-07-13T03:00:57;4.10;;;2.20;;
12088;SDS011;6107;49.078;8.578;2023-07-13T03:03:24;3.73;;;2.20;;
12088;SDS011;6107;49.078;8.578;2023-07-13T03:05:57;2.50;;;2.10;;
12088;SDS011;6107;49.078;8.578;2023-07-13T03:08:25;3.30;;;2.00;;
12088;SDS011;6107;49.078;8.578;2023-07-13T03:11:01;6.37;;;2.40;;
12088;SDS011;6107;49.078;8.578;2023-07-13T03:13:28;4.30;;;1.90;;
12088;SDS011;6107;49.078;8.578;2023-07-13T03:15:54;2.20;;;1.87;;
12088;SDS011;6107;49.078;8.578;2023-07-13T03:18:20;5.73;;;2.33;;
12088;SDS011;6107;49.078;8.578;2023-07-13T03:20:45;3.20;;;2.03;;
12088;SDS011;6107;49.078;8.578;2023-07-13T03:23:11;6.00;;;2.10;;
12088;SDS011;6107;49.078;8.578;2023-07-13T03:25:36;3.93;;;2.20;;
12088;SDS011;6107;49.078;8.578;2023-07-13T03:28:02;4.53;;;2.30;;
12088;SDS011;6107;49.078;8.578;2023-07-13T03:30:27;4.27;;;2.10;;
12088;SDS011;6107;49.078;8.578;2023-07-13T03:32:53;4.27;;;2.60;;
12088;SDS011;6107;49.078;8.578;2023-07-13T03:35:18;3.70;;;2.17;;
12088;SDS011;6107;49.078;8.578;2023-07-13T03:37:44;3.77;;;2.10;;
12088;SDS011;6107;49.078;8.578;2023-07-13T03:40:10;3.47;;;1.77;;
12088;SDS011;6107;49.078;8.578;2023-07-13T03:42:36;5.80;;;2.30;;
12088;SDS011;6107;49.078;8.578;2023-07-13T03:45:02;5.20;;;2.10;;
12088;SDS011;6107;49.078;8.578;2023-07-13T03:47:28;3.43;;;2.20;;
12088;SDS011;6107;49.078;8.578;2023-07-13T03:49:53;2.90;;;2.50;;
12088;SDS011;6107;49.078;8.578;2023-07-13T03:52:19;4.30;;;2.30;;
12088;SDS011;6107;49.078;8.578;2023-07-13T03:54:44;5.00;;;2.43;;
12088;SDS011;6107;49.078;8.578;2023-07-13T03:57:10;2.23;;;1.90;;
12088;SDS011;6107;49.078;8.578;2023-07-13T03:59:35;5.17;;;2.33;;
12088;SDS011;6107;49.078;8.578;2023-07-13T04:02:01;3.93;;;2.37;;
12088;SDS011;6107;49.078;8.578;2023-07-13T04:04:29;4.03;;;2.40;;
12088;SDS011;6107;49.078;8.578;2023-07-13T04:06:56;3.83;;;2.30;;
12088;SDS011;6107;49.078;8.578;2023-07-13T04:09:23;2.37;;;2.13;;
12088;SDS011;6107;49.078;8.578;2023-07-13T04:11:49;3.70;;;2.10;;
12088;SDS011;6107;49.078;8.578;2023-07-13T04:14:15;4.20;;;1.93;;
12088;SDS011;6107;49.078;8.578;2023-07-13T04:16:41;3.90;;;2.43;;
12088;SDS011;6107;49.078;8.578;2023-07-13T04:19:07;5.80;;;2.60;;
12088;SDS011;6107;49.078;8.578;2023-07-13T04:21:35;3.90;;;2.10;;
12088;SDS011;6107;49.078;8.578;2023-07-13T04:24:00;4.93;;;2.07;;
12088;SDS011;6107;49.078;8.578;2023-07-13T04:26:26;5.17;;;2.37;;
12088;SDS011;6107;49.078;8.578;2023-07-13T04:28:52;2.90;;;2.20;;
12088;SDS011;6107;49.078;8.578;2023-07-13T04:31:17;5.37;;;2.40;;
12088;SDS011;6107;49.078;8.578;2023-07-13T04:33:43;5.33;;;2.20;;
12088;SDS011;6107;49.078;8.578;2023-07-13T04:36:09;4.00;;;2.30;;
12088;SDS011;6107;49.078;8.578;2023-07-13T04:38:35;2.77;;;2.13;;
12088;SDS011;6107;49.078;8.578;2023-07-13T04:41:02;4.93;;;2.40;;
12088;SDS011;6107;49.078;8.578;2023-07-13T04:43:30;2.63;;;2.20;;
12088;SDS011;6107;49.078;8.578;2023-07-13T04:45:57;4.87;;;2.60;;
12088;SDS011;6107;49.078;8.578;2023-07-13T04:48:28;6.67;;;2.30;;
12088;SDS011;6107;49.078;8.578;2023-07-13T04:50:56;4.53;;;2.40;;
12088;SDS011;6107;49.078;8.578;2023-07-13T04:53:23;2.63;;;2.27;;
12088;SDS011;6107;49.078;8.578;2023-07-13T04:55:50;5.13;;;2.60;;
12088;SDS011;6107;49.078;8.578;2023-07-13T04:58:15;3.80;;;2.53;;
12088;SDS011;6107;49.078;8.578;2023-07-13T05:00:41;5.23;;;2.73;;
12088;SDS011;6107;49.078;8.578;2023-07-13T05:03:07;4.90;;;2.40;;
12088;SDS011;6107;49.078;8.578;2023-07-13T05:05:32;3.43;;;2.27;;
12088;SDS011;6107;49.078;8.578;2023-07-13T05:07:58;4.80;;;2.17;;
12088;SDS011;6107;49.078;8.578;2023-07-13T05:10:24;3.83;;;2.50;;
12088;SDS011;6107;49.078;8.578;2023-07-13T05:12:51;5.40;;;2.40;;
12088;SDS011;6107;49.078;8.578;2023-07-13T05:15:16;3.10;;;2.10;;
12088;SDS011;6107;49.078;8.578;2023-07-13T05:17:46;2.40;;;2.20;;
12088;SDS011;6107;49.078;8.578;2023-07-13T05:20:12;5.73;;;2.50;;
12088;SDS011;6107;49.078;8.578;2023-07-13T05:22:37;5.37;;;2.40;;
12088;SDS011;6107;49.078;8.578;2023-07-13T05:25:06;4.00;;;2.30;;
12088;SDS011;6107;49.078;8.578;2023-07-13T05:27:33;3.53;;;2.13;;
12088;SDS011;6107;49.078;8.578;2023-07-13T05:30:00;5.07;;;2.20;;
12088;SDS011;6107;49.078;8.578;2023-07-13T05:32:26;3.90;;;2.30;;
12088;SDS011;6107;49.078;8.578;2023-07-13T05:34:52;4.23;;;2.30;;
12088;SDS011;6107;49.078;8.578;2023-07-13T05:37:17;2.90;;;2.17;;
12088;SDS011;6107;49.078;8.578;2023-07-13T05:39:43;3.37;;;2.20;;
12088;SDS011;6107;49.078;8.578;2023-07-13T05:42:08;4.13;;;2.40;;
12088;SDS011;6107;49.078;8.578;2023-07-13T05:44:34;3.87;;;2.27;;
12088;SDS011;6107;49.078;8.578;2023-07-13T05:46:59;4.20;;;2.40;;
12088;SDS011;6107;49.078;8.578;2023-07-13T05:49:25;4.10;;;2.47;;
12088;SDS011;6107;49.078;8.578;2023-07-13T05:51:50;4.90;;;2.03;;
12088;SDS011;6107;49.078;8.578;2023-07-13T05:54:16;5.70;;;2.20;;
12088;SDS011;6107;49.078;8.578;2023-07-13T05:56:41;3.83;;;2.05;;
12088;SDS011;6107;49.078;8.578;2023-07-13T05:59:07;3.15;;;1.90;;
12088;SDS011;6107;49.078;8.578;2023-07-13T06:01:33;4.68;;;2.08;;
12088;SDS011;6107;49.078;8.578;2023-07-13T06:03:58;4.10;;;2.05;;
12088;SDS011;6107;49.078;8.578;2023-07-13T06:06:24;4.63;;;1.98;;
12088;SDS011;6107;49.078;8.578;2023-07-13T06:08:49;3.03;;;2.05;;
12088;SDS011;6107;49.078;8.578;2023-07-13T06:11:17;3.40;;;1.90;;
12088;SDS011;6107;49.078;8.578;2023-07-13T06:13:47;3.05;;;2.00;;
12088;SDS011;6107;49.078;8.578;2023-07-13T06:16:13;4.40;;;1.92;;
12088;SDS011;6107;49.078;8.578;2023-07-13T06:18:40;2.05;;;1.85;;
12088;SDS011;6107;49.078;8.578;2023-07-13T06:21:09;2.00;;;1.80;;
12088;SDS011;6107;49.078;8.578;2023-07-13T06:23:36;2.30;;;1.95;;
12088;SDS011;6107;49.078;8.578;2023-07-13T06:26:02;4.68;;;1.90;;
12088;SDS011;6107;49.078;8.578;2023-07-13T06:28:29;3.25;;;2.10;;
12088;SDS011;6107;49.078;8.578;2023-07-13T06:30:56;3.58;;;2.20;;
12088;SDS011;6107;49.078;8.578;2023-07-13T06:33:22;2.53;;;1.95;;
12088;SDS011;6107;49.078;8.578;2023-07-13T06:35:48;4.18;;;1.92;;
12088;SDS011;6107;49.078;8.578;2023-07-13T06:38:13;2.45;;;2.03;;
12088;SDS011;6107;49.078;8.578;2023-07-13T06:40:39;3.85;;;1.80;;
12088;SDS011;6107;49.078;8.578;2023-07-13T06:43:04;2.97;;;2.17;;
12088;SDS011;6107;49.078;8.578;2023-07-13T06:45:30;4.75;;;2.38;;
12088;SDS011;6107;49.078;8.578;2023-07-13T06:47:57;2.58;;;2.13;;
12088;SDS011;6107;49.078;8.578;2023-07-13T06:50:23;5.15;;;2.45;;
12088;SDS011;6107;49.078;8.578;2023-07-13T06:52:48;4.82;;;2.00;;
12088;SDS011;6107;49.078;8.578;2023-07-13T06:55:14;5.13;;;2.20;;
12088;SDS011;6107;49.078;8.578;2023-07-13T06:57:39;5.13;;;2.20;;
12088;SDS011;6107;49.078;8.578;2023-07-13T07:00:05;2.80;;;1.92;;
12088;SDS011;6107;49.078;8.578;2023-07-13T07:02:31;4.07;;;2.10;;
12088;SDS011;6107;49.078;8.578;2023-07-13T07:04:57;2.55;;;1.90;;
12088;SDS011;6107;49.078;8.578;2023-07-13T07:07:23;6.03;;;2.22;;
12088;SDS011;6107;49.078;8.578;2023-07-13T07:09:50;5.63;;;2.20;;
12088;SDS011;6107;49.078;8.578;2023-07-13T07:12:15;4.63;;;2.15;;
12088;SDS011;6107;49.078;8.578;2023-07-13T07:14:41;4.55;;;2.10;;
12088;SDS011;6107;49.078;8.578;2023-07-13T07:17:06;2.45;;;1.95;;
12088;SDS011;6107;49.078;8.578;2023-07-13T07:19:32;4.15;;;2.08;;
12088;SDS011;6107;49.078;8.578;2023-07-13T07:21:57;6.60;;;2.20;;
12088;SDS011;6107;49.078;8.578;2023-07-13T07:24:23;4.00;;;2.20;;
12088;SDS011;6107;49.078;8.578;2023-07-13T07:26:48;2.72;;;1.90;;
12088;SDS011;6107;49.078;8.578;2023-07-13T07:29:14;3.67;;;2.00;;
12088;SDS011;6107;49.078;8.578;2023-07-13T07:31:39;5.18;;;2.28;;
12088;SDS011;6107;49.078;8.578;2023-07-13T07:34:05;3.55;;;1.98;;
12088;SDS011;6107;49.078;8.578;2023-07-13T07:36:30;4.72;;;2.00;;
12088;SDS011;6107;49.078;8.578;2023-07-13T07:38:56;3.28;;;2.00;;
12088;SDS011;6107;49.078;8.578;2023-07-13T07:41:21;3.50;;;1.90;;
12088;SDS011;6107;49.078;8.578;2023-07-13T07:43:47;3.00;;;2.10;;
12088;SDS011;6107;49.078;8.578;2023-07-13T07:46:12;2.92;;;2.00;;
12088;SDS011;6107;49.078;8.578;2023-07-13T07:48:38;5.03;;;1.88;;
12088;SDS011;6107;49.078;8.578;2023-07-13T07:51:03;2.63;;;1.95;;
12088;SDS011;6107;49.078;8.578;2023-07-13T07:53:29;3.80;;;1.83;;
12088;SDS011;6107;49.078;8.578;2023-07-13T07:55:54;4.07;;;1.88;;
12088;SDS011;6107;49.078;8.578;2023-07-13T07:58:20;5.40;;;1.85;;
12088;SDS011;6107;49.078;8.578;2023-07-13T08:00:45;3.95;;;1.95;;
12088;SDS011;6107;49.078;8.578;2023-07-13T08:03:11;5.00;;;2.08;;
12088;SDS011;6107;49.078;8.578;2023-07-13T08:05:36;2.53;;;1.70;;
12088;SDS011;6107;49.078;8.578;2023-07-13T08:08:02;3.08;;;1.75;;
12088;SDS011;6107;49.078;8.578;2023-07-13T08:10:28;4.30;;;1.92;;
12088;SDS011;6107;49.078;8.578;2023-07-13T08:12:54;1.95;;;1.67;;
12088;SDS011;6107;49.078;8.578;2023-07-13T08:15:19;4.03;;;1.95;;
12088;SDS011;6107;49.078;8.578;2023-07-13T08:17:46;3.63;;;2.50;;
12088;SDS011;6107;49.078;8.578;2023-07-13T08:20:12;5.25;;;2.10;;
12088;SDS011;6107;49.078;8.578;2023-07-13T08:22:38;5.70;;;1.83;;
12088;SDS011;6107;49.078;8.578;2023-07-13T08:25:04;2.70;;;1.80;;
12088;SDS011;6107;49.078;8.578;2023-07-13T08:27:30;5.65;;;2.03;;
12088;SDS011;6107;49.078;8.578;2023-07-13T08:29:55;4.38;;;1.77;;
12088;SDS011;6107;49.078;8.578;2023-07-13T08:32:21;3.63;;;1.65;;
12088;SDS011;6107;49.078;8.578;2023-07-13T08:34:47;2.95;;;1.90;;
12088;SDS011;6107;49.078;8.578;2023-07-13T08:37:13;7.00;;;2.00;;
12088;SDS011;6107;49.078;8.578;2023-07-13T08:39:39;3.70;;;1.80;;
12088;SDS011;6107;49.078;8.578;2023-07-13T08:42:07;5.40;;;2.25;;
12088;SDS011;6107;49.078;8.578;2023-07-13T08:45:07;3.88;;;1.60;;
12088;SDS011;6107;49.078;8.578;2023-07-13T08:47:53;4.32;;;1.77;;
12088;SDS011;6107;49.078;8.578;2023-07-13T08:50:26;3.72;;;1.55;;
12088;SDS011;6107;49.078;8.578;2023-07-13T08:52:55;3.92;;;1.95;;
12088;SDS011;6107;49.078;8.578;2023-07-13T08:55:29;2.80;;;1.50;;
12088;SDS011;6107;49.078;8.578;2023-07-13T08:58:16;3.78;;;1.55;;
12088;SDS011;6107;49.078;8.578;2023-07-13T09:00:52;3.47;;;1.58;;
12088;SDS011;6107;49.078;8.578;2023-07-13T09:03:29;3.28;;;1.60;;
12088;SDS011;6107;49.078;8.578;2023-07-13T09:06:02;5.30;;;1.70;;
12088;SDS011;6107;49.078;8.578;2023-07-13T09:08:31;4.57;;;1.85;;
12088;SDS011;6107;49.078;8.578;2023-07-13T09:16:23;3.95;;;1.70;;
12088;SDS011;6107;49.078;8.578;2023-07-13T09:18:50;3.53;;;1.70;;
12088;SDS011;6107;49.078;8.578;2023-07-13T09:21:23;4.07;;;1.77;;
12088;SDS011;6107;49.078;8.578;2023-07-13T09:23:54;3.08;;;1.48;;
12088;SDS011;6107;49.078;8.578;2023-07-13T09:26:25;3.58;;;2.00;;
12088;SDS011;6107;49.078;8.578;2023-07-13T09:28:57;3.08;;;1.65;;
12088;SDS011;6107;49.078;8.578;2023-07-13T09:31:33;3.85;;;1.63;;
12088;SDS011;6107;49.078;8.578;2023-07-13T09:34:10;4.93;;;1.60;;
12088;SDS011;6107;49.078;8.578;2023-07-13T09:36:37;2.10;;;1.40;;
12088;SDS011;6107;49.078;8.578;2023-07-13T09:39:04;3.20;;;1.63;;
12088;SDS011;6107;49.078;8.578;2023-07-13T09:44:15;4.95;;;1.67;;
12088;SDS011;6107;49.078;8.578;2023-07-13T09:46:54;3.35;;;1.50;;
12088;SDS011;6107;49.078;8.578;2023-07-13T09:49:26;3.83;;;1.55;;
12088;SDS011;6107;49.078;8.578;2023-07-13T09:52:05;3.92;;;1.60;;
12088;SDS011;6107;49.078;8.578;2023-07-13T09:54:35;3.38;;;1.35;;
12088;SDS011;6107;49.078;8.578;2023-07-13T09:57:03;3.00;;;1.40;;
12088;SDS011;6107;49.078;8.578;2023-07-13T09:59:39;3.20;;;1.63;;
12088;SDS011;6107;49.078;8.578;2023-07-13T10:04:59;3.72;;;1.50;;
12088;SDS011;6107;49.078;8.578;2023-07-13T10:07:30;4.18;;;1.65;;
12088;SDS011;6107;49.078;8.578;2023-07-13T10:09:57;2.58;;;1.55;;
12088;SDS011;6107;49.078;8.578;2023-07-13T10:12:25;2.17;;;1.60;;
12088;SDS011;6107;49.078;8.578;2023-07-13T10:14:57;4.65;;;1.52;;
12088;SDS011;6107;49.078;8.578;2023-07-13T10:17:31;2.95;;;1.40;;
12088;SDS011;6107;49.078;8.578;2023-07-13T10:19:59;3.42;;;1.40;;
12088;SDS011;6107;49.078;8.578;2023-07-13T10:22:51;3.47;;;1.40;;
12088;SDS011;6107;49.078;8.578;2023-07-13T10:25:18;2.67;;;1.58;;
12088;SDS011;6107;49.078;8.578;2023-07-13T10:27:46;4.70;;;1.60;;
12088;SDS011;6107;49.078;8.578;2023-07-13T10:30:17;4.35;;;1.60;;
12088;SDS011;6107;49.078;8.578;2023-07-13T10:32:44;4.60;;;1.42;;
12088;SDS011;6107;49.078;8.578;2023-07-13T10:35:12;2.17;;;1.40;;
12088;SDS011;6107;49.078;8.578;2023-07-13T10:40:37;3.40;;;1.70;;
12088;SDS011;6107;49.078;8.578;2023-07-13T10:43:18;2.88;;;1.60;;
12088;SDS011;6107;49.078;8.578;2023-07-13T10:45:48;4.75;;;1.70;;
12088;SDS011;6107;49.078;8.578;2023-07-13T10:48:16;4.10;;;1.60;;
12088;SDS011;6107;49.078;8.578;2023-07-13T10:50:43;4.32;;;2.05;;
12088;SDS011;6107;49.078;8.578;2023-07-13T10:53:17;2.60;;;1.80;;
12088;SDS011;6107;49.078;8.578;2023-07-13T10:58:22;2.33;;;1.38;;
12088;SDS011;6107;49.078;8.578;2023-07-13T11:00:56;2.50;;;1.70;;
12088;SDS011;6107;49.078;8.578;2023-07-13T11:03:28;5.72;;;1.67;;
12088;SDS011;6107;49.078;8.578;2023-07-13T11:06:07;4.95;;;1.80;;
12088;SDS011;6107;49.078;8.578;2023-07-13T11:08:59;3.47;;;1.67;;
12088;SDS011;6107;49.078;8.578;2023-07-13T11:11:33;5.95;;;1.90;;
12088;SDS011;6107;49.078;8.578;2023-07-13T11:14:02;3.03;;;1.70;;
12088;SDS011;6107;49.078;8.578;2023-07-13T11:16:45;2.17;;;1.50;;
12088;SDS011;6107;49.078;8.578;2023-07-13T11:24:28;3.47;;;1.60;;
12088;SDS011;6107;49.078;8.578;2023-07-13T11:26:55;3.85;;;1.70;;
12088;SDS011;6107;49.078;8.578;2023-07-13T11:31:52;3.90;;;2.05;;
12088;SDS011;6107;49.078;8.578;2023-07-13T11:34:29;2.83;;;1.70;;
12088;SDS011;6107;49.078;8.578;2023-07-13T11:36:59;6.43;;;2.15;;
12088;SDS011;6107;49.078;8.578;2023-07-13T11:39:33;4.32;;;1.90;;
12088;SDS011;6107;49.078;8.578;2023-07-13T11:42:02;3.97;;;1.88;;
12088;SDS011;6107;49.078;8.578;2023-07-13T11:44:31;3.50;;;1.83;;
12088;SDS011;6107;49.078;8.578;2023-07-13T11:47:00;3.10;;;2.22;;
12088;SDS011;6107;49.078;8.578;2023-07-13T11:49:38;4.35;;;1.77;;
12088;SDS011;6107;49.078;8.578;2023-07-13T11:52:14;1.95;;;1.42;;
12088;SDS011;6107;49.078;8.578;2023-07-13T11:54:48;4.80;;;1.90;;
12088;SDS011;6107;49.078;8.578;2023-07-13T11:57:24;4.07;;;1.90;;
12088;SDS011;6107;49.078;8.578;2023-07-13T11:59:59;2.72;;;1.80;;
12088;SDS011;6107;49.078;8.578;2023-07-13T12:02:34;5.75;;;1.77;;
12088;SDS011;6107;49.078;8.578;2023-07-13T12:05:03;4.43;;;2.00;;
12088;SDS011;6107;49.078;8.578;2023-07-13T12:07:31;3.25;;;1.98;;
12088;SDS011;6107;49.078;8.578;2023-07-13T12:13:03;5.43;;;1.85;;
12088;SDS011;6107;49.078;8.578;2023-07-13T12:15:40;3.42;;;1.88;;
12088;SDS011;6107;49.078;8.578;2023-07-13T12:18:14;4.82;;;1.70;;
12088;SDS011;6107;49.078;8.578;2023-07-13T12:20:44;3.05;;;1.83;;
12088;SDS011;6107;49.078;8.578;2023-07-13T12:23:14;4.43;;;1.92;;
12088;SDS011;6107;49.078;8.578;2023-07-13T12:25:54;3.10;;;1.73;;
12088;SDS011;6107;49.078;8.578;2023-07-13T12:28:22;5.85;;;2.17;;
12088;SDS011;6107;49.078;8.578;2023-07-13T12:34:08;2.38;;;1.70;;
12088;SDS011;6107;49.078;8.578;2023-07-13T12:37:00;2.60;;;1.77;;
12088;SDS011;6107;49.078;8.578;2023-07-13T12:39:33;3.13;;;2.00;;
12088;SDS011;6107;49.078;8.578;2023-07-13T12:42:21;3.15;;;1.90;;
12088;SDS011;6107;49.078;8.578;2023-07-13T12:44:53;3.92;;;1.90;;
12088;SDS011;6107;49.078;8.578;2023-07-13T12:47:20;3.78;;;1.90;;
12088;SDS011;6107;49.078;8.578;2023-07-13T12:49:50;3.20;;;1.63;;
12088;SDS011;6107;49.078;8.578;2023-07-13T12:52:24;4.35;;;1.90;;
12088;SDS011;6107;49.078;8.578;2023-07-13T12:55:05;3.40;;;1.65;;
12088;SDS011;6107;49.078;8.578;2023-07-13T12:57:40;2.88;;;1.80;;
12088;SDS011;6107;49.078;8.578;2023-07-13T13:00:41;2.92;;;1.80;;
12088;SDS011;6107;49.078;8.578;2023-07-13T13:03:15;5.25;;;2.00;;
12088;SDS011;6107;49.078;8.578;2023-07-13T13:05:45;3.17;;;1.75;;
12088;SDS011;6107;49.078;8.578;2023-07-13T13:08:10;5.53;;;1.88;;
12088;SDS011;6107;49.078;8.578;2023-07-13T13:10:37;4.38;;;1.67;;
12088;SDS011;6107;49.078;8.578;2023-07-13T13:13:02;4.60;;;1.75;;
12088;SDS011;6107;49.078;8.578;2023-07-13T13:15:28;3.35;;;1.67;;
12088;SDS011;6107;49.078;8.578;2023-07-13T13:17:55;4.90;;;1.90;;
12088;SDS011;6107;49.078;8.578;2023-07-13T13:20:21;2.95;;;1.55;;
12088;SDS011;6107;49.078;8.578;2023-07-13T13:22:47;4.13;;;1.70;;
12088;SDS011;6107;49.078;8.578;2023-07-13T13:25:13;3.78;;;1.52;;
12088;SDS011;6107;49.078;8.578;2023-07-13T13:27:42;3.35;;;1.65;;
12088;SDS011;6107;49.078;8.578;2023-07-13T13:30:12;4.32;;;1.85;;
12088;SDS011;6107;49.078;8.578;2023-07-13T13:32:40;3.67;;;1.80;;
12088;SDS011;6107;49.078;8.578;2023-07-13T13:35:14;3.97;;;1.58;;
12088;SDS011;6107;49.078;8.578;2023-07-13T13:37:42;4.85;;;1.90;;
12088;SDS011;6107;49.078;8.578;2023-07-13T13:42:47;3.20;;;1.50;;
12088;SDS011;6107;49.078;8.578;2023-07-13T13:45:13;4.45;;;1.50;;
12088;SDS011;6107;49.078;8.578;2023-07-13T13:47:41;3.55;;;1.60;;
12088;SDS011;6107;49.078;8.578;2023-07-13T13:50:13;3.33;;;1.50;;
12088;SDS011;6107;49.078;8.578;2023-07-13T13:52:47;3.15;;;1.55;;
12088;SDS011;6107;49.078;8.578;2023-07-13T13:55:20;3.22;;;1.52;;
12088;SDS011;6107;49.078;8.578;2023-07-13T13:57:48;2.60;;;1.50;;
12088;SDS011;6107;49.078;8.578;2023-07-13T14:00:15;2.25;;;1.52;;
12088;SDS011;6107;49.078;8.578;2023-07-13T14:02:42;3.10;;;1.65;;
12088;SDS011;6107;49.078;8.578;2023-07-13T14:05:16;2.05;;;1.52;;
12088;SDS011;6107;49.078;8.578;2023-07-13T14:07:46;3.95;;;1.58;;
12088;SDS011;6107;49.078;8.578;2023-07-13T14:10:12;2.30;;;1.30;;
12088;SDS011;6107;49.078;8.578;2023-07-13T14:12:44;3.15;;;1.70;;
12088;SDS011;6107;49.078;8.578;2023-07-13T14:15:16;2.38;;;1.30;;
12088;SDS011;6107;49.078;8.578;2023-07-13T14:17:45;1.95;;;1.48;;
12088;SDS011;6107;49.078;8.578;2023-07-13T14:20:11;2.40;;;1.30;;
12088;SDS011;6107;49.078;8.578;2023-07-13T14:22:37;3.05;;;1.40;;
12088;SDS011;6107;49.078;8.578;2023-07-13T14:25:03;3.38;;;1.40;;
12088;SDS011;6107;49.078;8.578;2023-07-13T14:27:29;3.00;;;1.30;;
12088;SDS011;6107;49.078;8.578;2023-07-13T14:29:54;5.13;;;1.73;;
12088;SDS011;6107;49.078;8.578;2023-07-13T14:32:20;2.00;;;1.38;;
12088;SDS011;6107;49.078;8.578;2023-07-13T14:34:45;3.90;;;1.50;;
12088;SDS011;6107;49.078;8.578;2023-07-13T14:37:14;2.80;;;1.58;;
12088;SDS011;6107;49.078;8.578;2023-07-13T14:39:42;2.40;;;1.33;;
12088;SDS011;6107;49.078;8.578;2023-07-13T14:42:09;2.55;;;1.38;;
12088;SDS011;6107;49.078;8.578;2023-07-13T14:44:35;5.78;;;1.90;;
12088;SDS011;6107;49.078;8.578;2023-07-13T14:47:01;1.80;;;1.33;;
12088;SDS011;6107;49.078;8.578;2023-07-13T14:49:31;2.83;;;1.55;;
12088;SDS011;6107;49.078;8.578;2023-07-13T14:51:58;4.32;;;1.50;;
12088;SDS011;6107;49.078;8.578;2023-07-13T14:54:25;2.03;;;1.35;;
12088;SDS011;6107;49.078;8.578;2023-07-13T14:56:51;5.05;;;1.63;;
12088;SDS011;6107;49.078;8.578;2023-07-13T14:59:17;2.30;;;1.50;;
12088;SDS011;6107;49.078;8.578;2023-07-13T15:01:44;2.17;;;1.33;;
12088;SDS011;6107;49.078;8.578;2023-07-13T15:04:10;2.17;;;1.23;;
12088;SDS011;6107;49.078;8.578;2023-07-13T15:06:56;2.40;;;1.40;;
12088;SDS011;6107;49.078;8.578;2023-07-13T15:09:24;2.70;;;1.50;;
12088;SDS011;6107;49.078;8.578;2023-07-13T15:11:51;4.15;;;1.45;;
12088;SDS011;6107;49.078;8.578;2023-07-13T15:14:20;2.63;;;1.40;;
12088;SDS011;6107;49.078;8.578;2023-07-13T15:16:46;3.60;;;1.80;;
12088;SDS011;6107;49.078;8.578;2023-07-13T15:19:16;3.50;;;1.50;;
12088;SDS011;6107;49.078;8.578;2023-07-13T15:21:42;4.72;;;1.52;;
12088;SDS011;6107;49.078;8.578;2023-07-13T15:24:08;1.90;;;1.30;;
12088;SDS011;6107;49.078;8.578;2023-07-13T15:26:35;3.05;;;1.50;;
12088;SDS011;6107;49.078;8.578;2023-07-13T15:29:01;2.65;;;1.70;;
12088;SDS011;6107;49.078;8.578;2023-07-13T15:31:27;2.55;;;1.67;;
12088;SDS011;6107;49.078;8.578;2023-07-13T15:33:54;2.28;;;1.50;;
12088;SDS011;6107;49.078;8.578;2023-07-13T15:36:22;4.53;;;1.70;;
12088;SDS011;6107;49.078;8.578;2023-07-13T15:38:49;4.82;;;1.52;;
12088;SDS011;6107;49.078;8.578;2023-07-13T15:41:20;3.90;;;1.60;;
12088;SDS011;6107;49.078;8.578;2023-07-13T15:43:51;3.17;;;1.55;;
12088;SDS011;6107;49.078;8.578;2023-07-13T15:46:18;5.55;;;1.92;;